sensor_id;sensor_type;location;lat;lon;timestamp;P1;durP1;ratioP1;P2;durP2;ratioP2
31808;SDS011;18379;48.208;-1.518;2022-10-16T00:03:34;51.47;;;48.13;;
31808;SDS011;18379;48.208;-1.518;2022-10-16T00:08:36;55.03;;;51.27;;
31808;SDS011;18379;48.208;-1.518;2022-10-16T00:13:38;56.60;;;52.40;;
31808;SDS011;18379;48.208;-1.518;2022-10-16T00:18:41;43.93;;;41.43;;
31808;SDS011;18379;48.208;-1.518;2022-10-16T00:23:42;56.10;;;52.00;;
31808;SDS011;18379;48.208;-1.518;2022-10-16T00:28:47;55.30;;;51.60;;
31808;SDS011;18379;48.208;-1.518;2022-10-16T00:33:49;49.27;;;45.93;;
31808;SDS011;18379;48.208;-1.518;2022-10-16T00:38:51;44.70;;;41.97;;
31808;SDS011;18379;48.208;-1.518;2022-10-16T00:43:57;44.97;;;42.13;;
31808;SDS011;18379;48.208;-1.518;2022-10-16T00:49:15;45.80;;;42.80;;
31808;SDS011;18379;48.208;-1.518;2022-10-16T00:54:20;47.20;;;43.90;;
31808;SDS011;18379;48.208;-1.518;2022-10-16T00:59:27;45.43;;;42.53;;
31808;SDS011;18379;48.208;-1.518;2022-10-16T01:04:36;51.60;;;47.73;;
31808;SDS011;18379;48.208;-1.518;2022-10-16T01:09:56;58.97;;;54.47;;
31808;SDS011;18379;48.208;-1.518;2022-10-16T01:20:42;57.03;;;52.60;;
31808;SDS011;18379;48.208;-1.518;2022-10-16T01:31:14;57.73;;;53.37;;
31808;SDS011;18379;48.208;-1.518;2022-10-16T01:36:21;59.37;;;54.33;;
31808;SDS011;18379;48.208;-1.518;2022-10-16T01:41:33;45.93;;;42.83;;
31808;SDS011;18379;48.208;-1.518;2022-10-16T01:46:39;57.50;;;53.10;;
31808;SDS011;18379;48.208;-1.518;2022-10-16T01:51:43;59.73;;;55.13;;
31808;SDS011;18379;48.208;-1.518;2022-10-16T01:56:48;57.60;;;53.30;;
31808;SDS011;18379;48.208;-1.518;2022-10-16T02:01:52;48.37;;;44.77;;
31808;SDS011;18379;48.208;-1.518;2022-10-16T02:06:56;46.40;;;43.03;;
31808;SDS011;18379;48.208;-1.518;2022-10-16T02:11:57;46.23;;;43.13;;
31808;SDS011;18379;48.208;-1.518;2022-10-16T02:17:09;51.13;;;47.43;;
31808;SDS011;18379;48.208;-1.518;2022-10-16T02:22:27;57.90;;;53.43;;
31808;SDS011;18379;48.208;-1.518;2022-10-16T02:32:55;45.87;;;42.67;;
31808;SDS011;18379;48.208;-1.518;2022-10-16T02:37:58;44.33;;;41.53;;
31808;SDS011;18379;48.208;-1.518;2022-10-16T02:43:02;44.37;;;41.37;;
31808;SDS011;18379;48.208;-1.518;2022-10-16T02:48:04;53.50;;;49.67;;
31808;SDS011;18379;48.208;-1.518;2022-10-16T02:53:06;46.00;;;43.13;;
31808;SDS011;18379;48.208;-1.518;2022-10-16T02:58:07;56.40;;;51.77;;
31808;SDS011;18379;48.208;-1.518;2022-10-16T03:03:08;56.43;;;52.13;;
31808;SDS011;18379;48.208;-1.518;2022-10-16T03:08:09;57.23;;;52.83;;
31808;SDS011;18379;48.208;-1.518;2022-10-16T03:13:10;56.43;;;52.23;;
31808;SDS011;18379;48.208;-1.518;2022-10-16T03:18:10;56.43;;;52.13;;
31808;SDS011;18379;48.208;-1.518;2022-10-16T03:23:11;57.30;;;52.80;;
31808;SDS011;18379;48.208;-1.518;2022-10-16T03:28:12;57.83;;;53.00;;
31808;SDS011;18379;48.208;-1.518;2022-10-16T03:33:13;58.20;;;53.67;;
31808;SDS011;18379;48.208;-1.518;2022-10-16T03:38:14;55.70;;;51.33;;
31808;SDS011;18379;48.208;-1.518;2022-10-16T03:43:15;59.30;;;54.53;;
31808;SDS011;18379;48.208;-1.518;2022-10-16T03:48:17;57.83;;;53.33;;
31808;SDS011;18379;48.208;-1.518;2022-10-16T03:53:18;57.70;;;53.33;;
31808;SDS011;18379;48.208;-1.518;2022-10-16T03:58:19;56.60;;;51.93;;
31808;SDS011;18379;48.208;-1.518;2022-10-16T04:03:20;50.70;;;46.83;;
31808;SDS011;18379;48.208;-1.518;2022-10-16T04:08:21;48.93;;;45.30;;
31808;SDS011;18379;48.208;-1.518;2022-10-16T04:13:22;45.20;;;42.10;;
31808;SDS011;18379;48.208;-1.518;2022-10-16T04:18:23;45.90;;;42.53;;
31808;SDS011;18379;48.208;-1.518;2022-10-16T04:23:27;46.20;;;43.10;;
31808;SDS011;18379;48.208;-1.518;2022-10-16T04:28:28;45.10;;;42.10;;
31808;SDS011;18379;48.208;-1.518;2022-10-16T04:33:29;45.60;;;42.33;;
31808;SDS011;18379;48.208;-1.518;2022-10-16T04:38:30;45.40;;;42.40;;
31808;SDS011;18379;48.208;-1.518;2022-10-16T04:43:31;46.17;;;42.80;;
31808;SDS011;18379;48.208;-1.518;2022-10-16T04:48:32;47.83;;;44.43;;
31808;SDS011;18379;48.208;-1.518;2022-10-16T04:53:33;51.80;;;48.07;;
31808;SDS011;18379;48.208;-1.518;2022-10-16T04:58:34;54.17;;;50.17;;
31808;SDS011;18379;48.208;-1.518;2022-10-16T05:03:35;55.03;;;50.77;;
31808;SDS011;18379;48.208;-1.518;2022-10-16T05:08:36;58.20;;;53.87;;
31808;SDS011;18379;48.208;-1.518;2022-10-16T05:13:37;55.77;;;51.63;;
31808;SDS011;18379;48.208;-1.518;2022-10-16T05:18:38;57.93;;;53.47;;
31808;SDS011;18379;48.208;-1.518;2022-10-16T05:23:39;57.73;;;53.50;;
31808;SDS011;18379;48.208;-1.518;2022-10-16T05:28:40;46.77;;;43.63;;
31808;SDS011;18379;48.208;-1.518;2022-10-16T05:33:41;58.07;;;53.40;;
31808;SDS011;18379;48.208;-1.518;2022-10-16T05:38:44;59.30;;;54.80;;
31808;SDS011;18379;48.208;-1.518;2022-10-16T05:43:45;59.83;;;54.83;;
31808;SDS011;18379;48.208;-1.518;2022-10-16T05:48:46;59.33;;;54.70;;
31808;SDS011;18379;48.208;-1.518;2022-10-16T05:53:47;57.97;;;53.27;;
31808;SDS011;18379;48.208;-1.518;2022-10-16T05:58:48;60.07;;;55.33;;
31808;SDS011;18379;48.208;-1.518;2022-10-16T06:03:50;59.73;;;55.13;;
31808;SDS011;18379;48.208;-1.518;2022-10-16T06:08:52;53.03;;;48.87;;
31808;SDS011;18379;48.208;-1.518;2022-10-16T06:13:55;47.90;;;44.53;;
31808;SDS011;18379;48.208;-1.518;2022-10-16T06:18:57;48.80;;;45.00;;
31808;SDS011;18379;48.208;-1.518;2022-10-16T06:24:00;49.10;;;45.03;;
31808;SDS011;18379;48.208;-1.518;2022-10-16T06:29:01;47.80;;;44.57;;
31808;SDS011;18379;48.208;-1.518;2022-10-16T06:34:02;48.90;;;45.50;;
31808;SDS011;18379;48.208;-1.518;2022-10-16T06:39:05;54.77;;;50.83;;
31808;SDS011;18379;48.208;-1.518;2022-10-16T06:44:07;59.00;;;54.43;;
31808;SDS011;18379;48.208;-1.518;2022-10-16T06:49:08;51.23;;;47.23;;
31808;SDS011;18379;48.208;-1.518;2022-10-16T06:54:09;50.73;;;47.03;;
31808;SDS011;18379;48.208;-1.518;2022-10-16T06:59:10;51.80;;;47.90;;
31808;SDS011;18379;48.208;-1.518;2022-10-16T07:04:11;53.40;;;49.20;;
31808;SDS011;18379;48.208;-1.518;2022-10-16T07:09:12;53.13;;;48.93;;
31808;SDS011;18379;48.208;-1.518;2022-10-16T07:14:16;51.83;;;48.10;;
31808;SDS011;18379;48.208;-1.518;2022-10-16T07:19:18;54.37;;;50.23;;
31808;SDS011;18379;48.208;-1.518;2022-10-16T07:24:19;52.47;;;48.57;;
31808;SDS011;18379;48.208;-1.518;2022-10-16T07:29:20;51.87;;;47.87;;
31808;SDS011;18379;48.208;-1.518;2022-10-16T07:34:21;49.97;;;46.00;;
31808;SDS011;18379;48.208;-1.518;2022-10-16T07:39:22;49.67;;;46.03;;
31808;SDS011;18379;48.208;-1.518;2022-10-16T07:44:23;49.83;;;46.17;;
31808;SDS011;18379;48.208;-1.518;2022-10-16T07:49:24;49.03;;;45.30;;
31808;SDS011;18379;48.208;-1.518;2022-10-16T07:54:25;48.27;;;44.73;;
31808;SDS011;18379;48.208;-1.518;2022-10-16T07:59:25;49.47;;;46.03;;
31808;SDS011;18379;48.208;-1.518;2022-10-16T08:04:26;49.03;;;45.40;;
31808;SDS011;18379;48.208;-1.518;2022-10-16T08:09:27;46.63;;;43.63;;
31808;SDS011;18379;48.208;-1.518;2022-10-16T08:14:28;45.47;;;42.63;;
31808;SDS011;18379;48.208;-1.518;2022-10-16T08:19:29;45.30;;;42.27;;
31808;SDS011;18379;48.208;-1.518;2022-10-16T08:24:31;44.60;;;41.70;;
31808;SDS011;18379;48.208;-1.518;2022-10-16T08:29:33;44.90;;;42.37;;
31808;SDS011;18379;48.208;-1.518;2022-10-16T08:34:34;48.13;;;45.00;;
31808;SDS011;18379;48.208;-1.518;2022-10-16T08:39:35;49.33;;;45.77;;
31808;SDS011;18379;48.208;-1.518;2022-10-16T08:50:08;45.50;;;42.50;;
31808;SDS011;18379;48.208;-1.518;2022-10-16T09:00:41;47.63;;;44.73;;
31808;SDS011;18379;48.208;-1.518;2022-10-16T09:05:57;47.43;;;44.57;;
31808;SDS011;18379;48.208;-1.518;2022-10-16T09:11:14;47.17;;;44.33;;
31808;SDS011;18379;48.208;-1.518;2022-10-16T09:21:35;45.10;;;42.50;;
31808;SDS011;18379;48.208;-1.518;2022-10-16T09:26:38;47.20;;;44.30;;
31808;SDS011;18379;48.208;-1.518;2022-10-16T09:31:39;49.67;;;46.37;;
31808;SDS011;18379;48.208;-1.518;2022-10-16T09:36:41;47.60;;;44.53;;
31808;SDS011;18379;48.208;-1.518;2022-10-16T09:41:45;50.03;;;46.60;;
31808;SDS011;18379;48.208;-1.518;2022-10-16T09:46:46;48.77;;;45.73;;
31808;SDS011;18379;48.208;-1.518;2022-10-16T09:51:47;47.17;;;44.40;;
31808;SDS011;18379;48.208;-1.518;2022-10-16T09:56:48;48.77;;;45.67;;
31808;SDS011;18379;48.208;-1.518;2022-10-16T10:01:54;51.33;;;47.93;;
31808;SDS011;18379;48.208;-1.518;2022-10-16T10:06:56;48.07;;;44.87;;
31808;SDS011;18379;48.208;-1.518;2022-10-16T10:12:01;45.53;;;42.97;;
31808;SDS011;18379;48.208;-1.518;2022-10-16T10:28:13;45.47;;;42.60;;
31808;SDS011;18379;48.208;-1.518;2022-10-16T10:38:16;46.93;;;44.17;;
31808;SDS011;18379;48.208;-1.518;2022-10-16T10:48:52;47.77;;;44.97;;
31808;SDS011;18379;48.208;-1.518;2022-10-16T10:54:27;45.27;;;42.63;;
31808;SDS011;18379;48.208;-1.518;2022-10-16T11:04:39;45.03;;;42.00;;
31808;SDS011;18379;48.208;-1.518;2022-10-16T11:09:49;47.93;;;44.90;;
31808;SDS011;18379;48.208;-1.518;2022-10-16T11:20:24;49.60;;;46.33;;
31808;SDS011;18379;48.208;-1.518;2022-10-16T11:25:31;47.07;;;43.90;;
31808;SDS011;18379;48.208;-1.518;2022-10-16T11:30:34;45.10;;;42.37;;
31808;SDS011;18379;48.208;-1.518;2022-10-16T11:46:20;49.80;;;46.50;;
31808;SDS011;18379;48.208;-1.518;2022-10-16T11:56:36;45.20;;;42.40;;
31808;SDS011;18379;48.208;-1.518;2022-10-16T12:01:44;47.57;;;44.77;;
31808;SDS011;18379;48.208;-1.518;2022-10-16T12:07:04;44.23;;;41.63;;
31808;SDS011;18379;48.208;-1.518;2022-10-16T12:12:27;47.80;;;44.80;;
31808;SDS011;18379;48.208;-1.518;2022-10-16T12:17:38;48.23;;;44.90;;
31808;SDS011;18379;48.208;-1.518;2022-10-16T12:22:59;47.30;;;44.30;;
31808;SDS011;18379;48.208;-1.518;2022-10-16T12:28:05;45.37;;;42.70;;
31808;SDS011;18379;48.208;-1.518;2022-10-16T12:33:21;49.27;;;46.23;;
31808;SDS011;18379;48.208;-1.518;2022-10-16T12:43:46;47.87;;;44.80;;
31808;SDS011;18379;48.208;-1.518;2022-10-16T12:48:47;49.03;;;45.80;;
31808;SDS011;18379;48.208;-1.518;2022-10-16T12:54:03;50.20;;;47.10;;
31808;SDS011;18379;48.208;-1.518;2022-10-16T12:59:35;48.27;;;45.23;;
31808;SDS011;18379;48.208;-1.518;2022-10-16T13:10:13;47.43;;;44.53;;
31808;SDS011;18379;48.208;-1.518;2022-10-16T13:20:39;47.73;;;44.40;;
31808;SDS011;18379;48.208;-1.518;2022-10-16T13:31:13;48.47;;;45.57;;
31808;SDS011;18379;48.208;-1.518;2022-10-16T13:36:23;48.47;;;45.30;;
31808;SDS011;18379;48.208;-1.518;2022-10-16T13:41:28;46.67;;;43.97;;
31808;SDS011;18379;48.208;-1.518;2022-10-16T13:46:29;45.73;;;43.03;;
31808;SDS011;18379;48.208;-1.518;2022-10-16T13:51:34;46.53;;;43.93;;
31808;SDS011;18379;48.208;-1.518;2022-10-16T13:56:35;47.37;;;44.67;;
31808;SDS011;18379;48.208;-1.518;2022-10-16T14:01:42;48.53;;;45.63;;
31808;SDS011;18379;48.208;-1.518;2022-10-16T14:06:44;48.53;;;45.67;;
31808;SDS011;18379;48.208;-1.518;2022-10-16T14:11:48;47.93;;;45.10;;
31808;SDS011;18379;48.208;-1.518;2022-10-16T14:17:14;49.63;;;46.73;;
31808;SDS011;18379;48.208;-1.518;2022-10-16T14:27:33;46.53;;;43.93;;
31808;SDS011;18379;48.208;-1.518;2022-10-16T14:32:35;48.73;;;45.67;;
31808;SDS011;18379;48.208;-1.518;2022-10-16T14:37:36;48.87;;;45.90;;
31808;SDS011;18379;48.208;-1.518;2022-10-16T14:42:37;48.67;;;45.77;;
31808;SDS011;18379;48.208;-1.518;2022-10-16T14:47:45;49.50;;;46.50;;
31808;SDS011;18379;48.208;-1.518;2022-10-16T14:52:49;48.63;;;45.73;;
31808;SDS011;18379;48.208;-1.518;2022-10-16T14:57:50;50.20;;;47.17;;
31808;SDS011;18379;48.208;-1.518;2022-10-16T15:02:51;48.60;;;45.70;;
31808;SDS011;18379;48.208;-1.518;2022-10-16T15:07:53;48.53;;;45.50;;
31808;SDS011;18379;48.208;-1.518;2022-10-16T15:12:54;48.97;;;46.10;;
31808;SDS011;18379;48.208;-1.518;2022-10-16T15:17:56;46.77;;;44.17;;
31808;SDS011;18379;48.208;-1.518;2022-10-16T15:22:57;50.60;;;47.50;;
31808;SDS011;18379;48.208;-1.518;2022-10-16T15:27:58;47.93;;;45.07;;
31808;SDS011;18379;48.208;-1.518;2022-10-16T15:33:00;47.60;;;44.90;;
31808;SDS011;18379;48.208;-1.518;2022-10-16T15:38:02;47.60;;;44.93;;
31808;SDS011;18379;48.208;-1.518;2022-10-16T15:43:03;47.50;;;44.70;;
31808;SDS011;18379;48.208;-1.518;2022-10-16T15:48:03;47.37;;;44.73;;
31808;SDS011;18379;48.208;-1.518;2022-10-16T15:53:05;48.87;;;45.97;;
31808;SDS011;18379;48.208;-1.518;2022-10-16T15:58:05;48.43;;;45.67;;
31808;SDS011;18379;48.208;-1.518;2022-10-16T16:03:06;49.60;;;46.57;;
31808;SDS011;18379;48.208;-1.518;2022-10-16T16:08:07;51.17;;;47.93;;
31808;SDS011;18379;48.208;-1.518;2022-10-16T16:13:08;52.17;;;48.73;;
31808;SDS011;18379;48.208;-1.518;2022-10-16T16:18:08;51.70;;;48.50;;
31808;SDS011;18379;48.208;-1.518;2022-10-16T16:23:09;50.80;;;47.60;;
31808;SDS011;18379;48.208;-1.518;2022-10-16T16:28:12;50.10;;;47.00;;
31808;SDS011;18379;48.208;-1.518;2022-10-16T16:33:14;50.23;;;47.13;;
31808;SDS011;18379;48.208;-1.518;2022-10-16T16:38:15;50.77;;;47.67;;
31808;SDS011;18379;48.208;-1.518;2022-10-16T16:43:15;50.60;;;47.40;;
31808;SDS011;18379;48.208;-1.518;2022-10-16T16:48:17;50.53;;;47.50;;
31808;SDS011;18379;48.208;-1.518;2022-10-16T16:53:19;50.77;;;47.67;;
31808;SDS011;18379;48.208;-1.518;2022-10-16T16:58:19;50.20;;;47.20;;
31808;SDS011;18379;48.208;-1.518;2022-10-16T17:03:20;51.93;;;48.67;;
31808;SDS011;18379;48.208;-1.518;2022-10-16T17:08:21;49.50;;;46.50;;
31808;SDS011;18379;48.208;-1.518;2022-10-16T17:13:22;49.57;;;46.57;;
31808;SDS011;18379;48.208;-1.518;2022-10-16T17:18:31;48.27;;;45.27;;
31808;SDS011;18379;48.208;-1.518;2022-10-16T17:23:34;48.53;;;45.73;;
31808;SDS011;18379;48.208;-1.518;2022-10-16T17:28:36;49.77;;;46.70;;
31808;SDS011;18379;48.208;-1.518;2022-10-16T17:33:37;54.53;;;50.47;;
31808;SDS011;18379;48.208;-1.518;2022-10-16T17:38:38;57.57;;;53.33;;
31808;SDS011;18379;48.208;-1.518;2022-10-16T17:43:39;51.67;;;48.50;;
31808;SDS011;18379;48.208;-1.518;2022-10-16T17:48:42;49.07;;;46.17;;
31808;SDS011;18379;48.208;-1.518;2022-10-16T17:53:54;52.07;;;48.87;;
31808;SDS011;18379;48.208;-1.518;2022-10-16T17:58:57;48.43;;;45.23;;
31808;SDS011;18379;48.208;-1.518;2022-10-16T18:04:01;49.13;;;46.23;;
31808;SDS011;18379;48.208;-1.518;2022-10-16T18:09:06;52.07;;;48.50;;
31808;SDS011;18379;48.208;-1.518;2022-10-16T18:14:10;51.93;;;48.67;;
31808;SDS011;18379;48.208;-1.518;2022-10-16T18:19:13;55.20;;;51.60;;
31808;SDS011;18379;48.208;-1.518;2022-10-16T18:24:14;51.90;;;48.67;;
31808;SDS011;18379;48.208;-1.518;2022-10-16T18:29:18;53.40;;;49.83;;
31808;SDS011;18379;48.208;-1.518;2022-10-16T18:34:19;53.40;;;49.80;;
31808;SDS011;18379;48.208;-1.518;2022-10-16T18:39:20;54.40;;;50.63;;
31808;SDS011;18379;48.208;-1.518;2022-10-16T18:44:22;52.87;;;49.27;;
31808;SDS011;18379;48.208;-1.518;2022-10-16T18:49:27;52.17;;;48.63;;
31808;SDS011;18379;48.208;-1.518;2022-10-16T18:54:29;50.37;;;47.27;;
31808;SDS011;18379;48.208;-1.518;2022-10-16T18:59:30;50.97;;;47.73;;
31808;SDS011;18379;48.208;-1.518;2022-10-16T19:04:31;48.77;;;45.83;;
31808;SDS011;18379;48.208;-1.518;2022-10-16T19:09:32;48.93;;;45.93;;
31808;SDS011;18379;48.208;-1.518;2022-10-16T19:14:33;49.47;;;46.37;;
31808;SDS011;18379;48.208;-1.518;2022-10-16T19:19:34;49.93;;;46.77;;
31808;SDS011;18379;48.208;-1.518;2022-10-16T19:24:37;51.27;;;48.00;;
31808;SDS011;18379;48.208;-1.518;2022-10-16T19:29:38;51.93;;;48.47;;
31808;SDS011;18379;48.208;-1.518;2022-10-16T19:34:39;51.50;;;48.23;;
31808;SDS011;18379;48.208;-1.518;2022-10-16T19:39:40;51.27;;;47.97;;
31808;SDS011;18379;48.208;-1.518;2022-10-16T19:44:40;52.67;;;49.27;;
31808;SDS011;18379;48.208;-1.518;2022-10-16T19:49:41;51.00;;;47.70;;
31808;SDS011;18379;48.208;-1.518;2022-10-16T19:54:42;51.87;;;48.47;;
31808;SDS011;18379;48.208;-1.518;2022-10-16T19:59:43;51.33;;;47.70;;
31808;SDS011;18379;48.208;-1.518;2022-10-16T20:04:44;50.90;;;47.60;;
31808;SDS011;18379;48.208;-1.518;2022-10-16T20:09:44;51.17;;;47.87;;
31808;SDS011;18379;48.208;-1.518;2022-10-16T20:14:45;50.87;;;47.60;;
31808;SDS011;18379;48.208;-1.518;2022-10-16T20:19:46;50.80;;;47.37;;
31808;SDS011;18379;48.208;-1.518;2022-10-16T20:24:47;52.77;;;49.30;;
31808;SDS011;18379;48.208;-1.518;2022-10-16T20:29:47;53.23;;;49.50;;
31808;SDS011;18379;48.208;-1.518;2022-10-16T20:34:48;51.40;;;48.03;;
31808;SDS011;18379;48.208;-1.518;2022-10-16T20:39:49;52.63;;;49.03;;
31808;SDS011;18379;48.208;-1.518;2022-10-16T20:44:50;50.90;;;47.70;;
31808;SDS011;18379;48.208;-1.518;2022-10-16T20:49:51;50.87;;;47.57;;
31808;SDS011;18379;48.208;-1.518;2022-10-16T20:54:52;50.40;;;47.10;;
31808;SDS011;18379;48.208;-1.518;2022-10-16T20:59:53;50.63;;;47.30;;
31808;SDS011;18379;48.208;-1.518;2022-10-16T21:04:54;49.57;;;46.00;;
31808;SDS011;18379;48.208;-1.518;2022-10-16T21:09:55;48.37;;;45.30;;
31808;SDS011;18379;48.208;-1.518;2022-10-16T21:14:56;48.37;;;45.37;;
31808;SDS011;18379;48.208;-1.518;2022-10-16T21:19:57;49.17;;;45.83;;
31808;SDS011;18379;48.208;-1.518;2022-10-16T21:24:58;48.17;;;44.87;;
31808;SDS011;18379;48.208;-1.518;2022-10-16T21:29:58;48.43;;;45.33;;
31808;SDS011;18379;48.208;-1.518;2022-10-16T21:34:59;49.47;;;46.17;;
31808;SDS011;18379;48.208;-1.518;2022-10-16T21:40:00;48.13;;;45.13;;
31808;SDS011;18379;48.208;-1.518;2022-10-16T21:45:01;47.93;;;44.77;;
31808;SDS011;18379;48.208;-1.518;2022-10-16T21:50:02;48.60;;;45.50;;
31808;SDS011;18379;48.208;-1.518;2022-10-16T21:55:03;48.13;;;44.93;;
31808;SDS011;18379;48.208;-1.518;2022-10-16T22:00:05;48.27;;;45.23;;
31808;SDS011;18379;48.208;-1.518;2022-10-16T22:05:06;49.70;;;46.27;;
31808;SDS011;18379;48.208;-1.518;2022-10-16T22:10:07;52.23;;;48.53;;
31808;SDS011;18379;48.208;-1.518;2022-10-16T22:15:09;51.50;;;47.77;;
31808;SDS011;18379;48.208;-1.518;2022-10-16T22:20:10;52.20;;;48.50;;
31808;SDS011;18379;48.208;-1.518;2022-10-16T22:25:11;52.60;;;48.77;;
31808;SDS011;18379;48.208;-1.518;2022-10-16T22:30:12;52.90;;;49.00;;
31808;SDS011;18379;48.208;-1.518;2022-10-16T22:35:13;52.60;;;48.50;;
31808;SDS011;18379;48.208;-1.518;2022-10-16T22:40:13;51.03;;;47.43;;
31808;SDS011;18379;48.208;-1.518;2022-10-16T22:45:14;52.77;;;48.80;;
31808;SDS011;18379;48.208;-1.518;2022-10-16T22:50:15;51.23;;;47.73;;
31808;SDS011;18379;48.208;-1.518;2022-10-16T22:55:16;53.57;;;49.27;;
31808;SDS011;18379;48.208;-1.518;2022-10-16T23:00:18;51.27;;;47.70;;
31808;SDS011;18379;48.208;-1.518;2022-10-16T23:05:19;51.60;;;47.77;;
31808;SDS011;18379;48.208;-1.518;2022-10-16T23:10:19;55.37;;;51.27;;
31808;SDS011;18379;48.208;-1.518;2022-10-16T23:15:26;49.00;;;45.70;;
31808;SDS011;18379;48.208;-1.518;2022-10-16T23:20:27;50.27;;;46.60;;
31808;SDS011;18379;48.208;-1.518;2022-10-16T23:25:28;49.63;;;45.80;;
31808;SDS011;18379;48.208;-1.518;2022-10-16T23:30:28;49.10;;;45.57;;
31808;SDS011;18379;48.208;-1.518;2022-10-16T23:35:29;50.37;;;46.57;;
31808;SDS011;18379;48.208;-1.518;2022-10-16T23:40:30;48.73;;;45.33;;
31808;SDS011;18379;48.208;-1.518;2022-10-16T23:45:31;48.13;;;44.80;;
31808;SDS011;18379;48.208;-1.518;2022-10-16T23:50:31;49.17;;;45.73;;
31808;SDS011;18379;48.208;-1.518;2022-10-16T23:55:32;48.90;;;45.37;;
